Time;durP1;ratioP1;P1;durP2;ratioP2;P2;SDS_P1;SDS_P2;PMS_P1;PMS_P2;Temp;Humidity;BMP_temperature;BMP_pressure;BME280_temperature;BME280_humidity;BME280_pressure;Samples;Min_cycle;Max_cycle;Signal;HPM_P1;HPM_P2
2023/01/01 00:01:24;;;;;;;7.90;3.45;;;;;;;9.53;100.00;99596.84;5014185;28;20034;-52
2023/01/01 00:03:51;;;;;;;29.63;13.95;;;;;;;9.55;100.00;99586.88;5015345;28;20028;-54
2023/01/01 00:06:16;;;;;;;45.67;26.65;;;;;;;9.47;100.00;99597.66;5023407;28;20474;-55
2023/01/01 00:08:42;;;;;;;46.60;26.40;;;;;;;9.35;100.00;99602.75;5019119;28;20029;-57
2023/01/01 00:11:08;;;;;;;27.88;16.25;;;;;;;9.26;100.00;99611.09;5019803;28;20044;-57
2023/01/01 00:13:36;;;;;;;29.33;14.20;;;;;;;9.21;100.00;99627.56;5019478;28;20041;-52
2023/01/01 00:16:07;;;;;;;15.30;8.57;;;;;;;9.26;100.00;99611.09;5020832;28;20037;-56
2023/01/01 00:18:33;;;;;;;21.17;10.63;;;;;;;9.27;100.00;99600.31;5018544;28;20692;-56
2023/01/01 00:21:12;;;;;;;14.60;7.47;;;;;;;9.29;100.00;99608.88;5029542;28;20030;-55
2023/01/01 00:23:39;;;;;;;6.43;4.65;;;;;;;9.25;100.00;99607.66;5033737;28;20034;-52
2023/01/01 00:26:16;;;;;;;5.65;1.45;;;;;;;9.26;100.00;99619.84;5020204;28;20091;-53
2023/01/01 00:28:43;;;;;;;12.05;2.80;;;;;;;9.26;100.00;99619.03;5017741;28;20402;-53
2023/01/01 00:31:10;;;;;;;3.05;0.55;;;;;;;9.28;100.00;99622.28;5025422;28;20047;-52
2023/01/01 00:33:35;;;;;;;5.50;1.42;;;;;;;9.34;100.00;99624.91;5014845;28;20029;-54
2023/01/01 00:36:09;;;;;;;1.50;0.30;;;;;;;9.44;100.00;99631.66;5016809;28;20037;-53
2023/01/01 00:38:35;;;;;;;4.63;0.77;;;;;;;9.46;100.00;99616.38;5031719;28;20022;-55
2023/01/01 00:41:01;;;;;;;3.63;1.08;;;;;;;9.46;100.00;99637.56;5018149;28;20028;-53
2023/01/01 00:43:26;;;;;;;7.25;2.70;;;;;;;9.46;100.00;99634.91;5015595;28;20738;-54
2023/01/01 00:45:52;;;;;;;3.08;1.73;;;;;;;9.42;100.00;99626.56;5021159;28;20038;-52
2023/01/01 00:48:18;;;;;;;6.85;2.55;;;;;;;9.52;100.00;99636.72;5015194;28;20048;-53
2023/01/01 00:50:43;;;;;;;3.67;1.73;;;;;;;9.51;100.00;99649.16;5013086;28;20064;-53
2023/01/01 00:53:09;;;;;;;5.53;2.03;;;;;;;9.55;100.00;99654.84;5013274;28;20378;-52
2023/01/01 00:55:34;;;;;;;5.38;1.98;;;;;;;9.56;100.00;99632.66;5003311;28;20057;-53
2023/01/01 00:57:59;;;;;;;2.60;1.05;;;;;;;9.55;100.00;99646.91;5012155;28;20140;-51
2023/01/01 01:00:25;;;;;;;8.02;2.08;;;;;;;9.58;100.00;99654.47;5014075;28;20034;-53
2023/01/01 01:02:50;;;;;;;6.03;1.33;;;;;;;9.67;100.00;99649.75;5013520;28;20033;-55
2023/01/01 01:05:16;;;;;;;3.53;1.13;;;;;;;9.68;100.00;99643.44;5015171;28;20026;-53
2023/01/01 01:07:41;;;;;;;7.38;2.00;;;;;;;9.62;100.00;99660.94;5024608;28;20029;-56
2023/01/01 01:10:08;;;;;;;9.48;2.65;;;;;;;9.70;100.00;99650.16;5021603;28;20029;-53
2023/01/01 01:12:34;;;;;;;8.35;2.90;;;;;;;9.75;100.00;99642.41;5019972;28;20037;-52
2023/01/01 01:15:00;;;;;;;8.85;0.80;;;;;;;9.77;100.00;99653.59;5022189;28;20056;-51
2023/01/01 01:17:26;;;;;;;9.90;1.20;;;;;;;9.69;100.00;99648.53;5023957;28;20409;-57
2023/01/01 01:19:51;;;;;;;8.25;2.00;;;;;;;9.65;100.00;99634.06;5025119;28;20352;-51
2023/01/01 01:22:17;;;;;;;7.30;2.13;;;;;;;9.62;100.00;99645.06;5020131;28;20819;-56
2023/01/01 01:24:42;;;;;;;1.50;0.50;;;;;;;9.40;100.00;99641.84;5016729;28;20398;-52
2023/01/01 01:27:08;;;;;;;4.57;1.13;;;;;;;9.35;100.00;99650.38;5025260;28;20103;-56
2023/01/01 01:29:33;;;;;;;9.70;2.25;;;;;;;9.23;100.00;99662.56;5028991;28;20429;-53
2023/01/01 01:31:58;;;;;;;10.07;2.60;;;;;;;9.24;100.00;99664.22;5011632;28;20113;-51
2023/01/01 01:34:24;;;;;;;6.78;1.85;;;;;;;9.22;100.00;99670.72;5015293;28;20036;-55
2023/01/01 01:36:51;;;;;;;8.93;1.08;;;;;;;9.21;100.00;99684.94;5012224;28;20026;-51
2023/01/01 01:39:17;;;;;;;8.50;1.77;;;;;;;9.10;100.00;99676.59;5015680;28;20047;-56
2023/01/01 01:41:42;;;;;;;5.57;1.20;;;;;;;9.12;100.00;99681.69;5016430;28;20752;-54
2023/01/01 01:44:48;;;;;;;5.65;0.98;;;;;;;9.17;100.00;99687.19;5013873;28;20100;-50
2023/01/01 01:47:16;;;;;;;9.95;0.60;;;;;;;9.09;100.00;99690.84;5014133;28;20043;-52
2023/01/01 01:49:43;;;;;;;4.25;0.30;;;;;;;9.26;100.00;99679.88;5017488;28;20477;-54
2023/01/01 01:52:09;;;;;;;6.40;1.15;;;;;;;9.19;100.00;99695.75;5009944;28;20034;-53
2023/01/01 01:54:34;;;;;;;6.03;1.55;;;;;;;9.03;100.00;99704.03;5009620;28;20060;-54
2023/01/01 01:57:04;;;;;;;7.25;0.45;;;;;;;9.02;100.00;99699.78;5015992;28;20171;-52
2023/01/01 01:59:37;;;;;;;6.25;0.50;;;;;;;9.09;100.00;99698.78;5015166;28;20077;-51
2023/01/01 02:02:08;;;;;;;5.90;1.27;;;;;;;9.24;100.00;99708.34;5010876;28;20033;-51
2023/01/01 02:04:34;;;;;;;10.75;0.20;;;;;;;9.23;100.00;99702.25;5009328;28;20033;-50
2023/01/01 02:06:59;;;;;;;10.90;0.77;;;;;;;9.02;100.00;99703.22;5013512;28;20029;-52
2023/01/01 02:09:25;;;;;;;19.00;1.58;;;;;;;8.96;100.00;99709.31;5015413;28;20138;-50
2023/01/01 02:11:50;;;;;;;11.55;2.30;;;;;;;8.82;100.00;99718.22;5015636;28;20029;-54
2023/01/01 02:14:15;;;;;;;3.97;0.45;;;;;;;8.86;100.00;99719.47;5010859;28;20054;-53
2023/01/01 02:16:46;;;;;;;5.10;0.20;;;;;;;8.81;100.00;99727.97;5015494;28;20014;-52
2023/01/01 02:19:27;;;;;;;9.45;1.00;;;;;;;8.73;100.00;99726.31;5021327;28;20033;-51
2023/01/01 02:22:01;;;;;;;12.93;1.13;;;;;;;8.85;100.00;99737.13;5025404;28;20025;-52
2023/01/01 02:24:51;;;;;;;4.78;0.50;;;;;;;8.92;100.00;99739.81;5014693;28;20095;-52
2023/01/01 02:27:38;;;;;;;5.22;0.30;;;;;;;8.85;100.00;99739.75;5020984;28;20044;-52
2023/01/01 02:30:07;;;;;;;7.72;1.23;;;;;;;8.82;100.00;99734.88;5017997;28;20034;-49
2023/01/01 02:32:39;;;;;;;10.77;2.35;;;;;;;8.73;100.00;99741.38;5019818;28;20056;-52
2023/01/01 02:38:04;;;;;;;4.97;1.15;;;;;;;8.75;100.00;99757.81;5018387;28;20075;-50
2023/01/01 02:40:30;;;;;;;5.72;0.73;;;;;;;8.68;100.00;99762.28;5016903;28;20427;-50
2023/01/01 02:42:56;;;;;;;11.48;1.70;;;;;;;8.69;100.00;99759.44;5015033;28;20040;-52
2023/01/01 02:45:22;;;;;;;14.70;3.80;;;;;;;8.67;100.00;99758.84;5022257;28;20028;-51
2023/01/01 02:47:47;;;;;;;8.23;1.02;;;;;;;8.68;100.00;99759.63;5018767;28;20029;-53
2023/01/01 02:50:17;;;;;;;8.50;1.45;;;;;;;8.83;100.00;99756.84;5017047;28;20042;-52
2023/01/01 02:53:18;;;;;;;8.80;1.55;;;;;;;8.77;100.00;99768.22;5022059;28;20029;-55
2023/01/01 02:55:50;;;;;;;8.00;1.02;;;;;;;8.66;100.00;99756.38;5017909;28;20088;-49
2023/01/01 03:01:22;;;;;;;10.90;1.80;;;;;;;8.78;100.00;99754.81;5023537;28;20053;-52
2023/01/01 03:03:59;;;;;;;7.45;0.68;;;;;;;8.72;100.00;99761.69;5021962;28;20075;-52
2023/01/01 03:06:36;;;;;;;14.30;2.25;;;;;;;8.67;100.00;99761.47;5020177;28;20121;-54
2023/01/01 03:09:10;;;;;;;9.73;2.03;;;;;;;8.75;100.00;99765.75;5024809;28;20053;-49
2023/01/01 03:11:53;;;;;;;6.40;1.13;;;;;;;8.74;100.00;99764.13;5018312;28;20034;-52
2023/01/01 03:14:24;;;;;;;3.58;2.08;;;;;;;8.61;100.00;99766.72;5016101;28;20037;-49
2023/01/01 03:16:57;;;;;;;6.47;1.27;;;;;;;8.55;100.00;99756.94;5026771;28;20033;-50
2023/01/01 03:19:32;;;;;;;9.65;1.50;;;;;;;8.54;100.00;99774.59;5025813;28;20483;-51
2023/01/01 03:22:08;;;;;;;5.22;1.20;;;;;;;8.43;100.00;99775.97;5022550;28;20146;-52
2023/01/01 03:24:49;;;;;;;7.65;0.55;;;;;;;8.46;100.00;99783.50;5017011;28;20028;-55
2023/01/01 03:27:21;;;;;;;7.72;1.20;;;;;;;8.49;100.00;99798.97;5032996;28;20227;-55
2023/01/01 03:29:50;;;;;;;6.78;0.55;;;;;;;8.47;100.00;99798.34;5027714;28;20063;-50
2023/01/01 03:32:59;;;;;;;21.98;4.15;;;;;;;8.59;100.00;99790.69;5022437;28;20037;-49
2023/01/01 03:35:13;;;;;;;11.68;1.27;;;;;;;8.45;100.00;99797.72;5034825;28;20029;-49
2023/01/01 03:37:42;;;;;;;12.55;1.92;;;;;;;8.41;100.00;99791.19;5024192;28;20029;-55
2023/01/01 03:40:09;;;;;;;12.00;0.90;;;;;;;8.28;100.00;99785.78;5018648;28;20041;-50
2023/01/01 03:42:40;;;;;;;18.65;1.92;;;;;;;8.26;100.00;99798.34;5025059;28;20036;-49
2023/01/01 03:45:28;;;;;;;5.18;0.70;;;;;;;8.32;100.00;99794.16;5030714;28;20479;-53
2023/01/01 03:47:55;;;;;;;8.30;2.55;;;;;;;8.30;100.00;99800.44;5023481;28;20041;-53
2023/01/01 03:50:28;;;;;;;17.55;1.60;;;;;;;8.23;100.00;99810.13;5026863;28;20146;-49
2023/01/01 03:53:06;;;;;;;8.75;1.30;;;;;;;8.26;100.00;99809.75;5028103;28;20057;-52
2023/01/01 03:55:39;;;;;;;13.93;2.90;;;;;;;8.35;100.00;99817.53;5024163;28;20021;-51
2023/01/01 03:58:14;;;;;;;21.42;3.10;;;;;;;8.25;100.00;99829.25;5035316;28;20060;-51
2023/01/01 04:00:49;;;;;;;21.50;1.58;;;;;;;8.32;100.00;99839.06;5024680;28;20048;-55
2023/01/01 04:03:22;;;;;;;18.05;1.35;;;;;;;8.33;100.00;99843.31;5033511;28;20112;-51
2023/01/01 04:05:47;;;;;;;11.45;2.25;;;;;;;8.24;100.00;99842.66;5015566;28;20379;-51
2023/01/01 04:08:14;;;;;;;9.27;1.45;;;;;;;8.30;100.00;99836.59;5020606;28;20117;-49
2023/01/01 04:10:49;;;;;;;17.52;2.90;;;;;;;8.25;100.00;99841.63;5022733;28;20034;-50
2023/01/01 04:13:15;;;;;;;7.82;0.95;;;;;;;8.15;100.00;99844.59;5028965;28;20108;-55
2023/01/01 04:15:40;;;;;;;14.60;1.25;;;;;;;8.24;100.00;99858.50;5017073;28;20040;-51
2023/01/01 04:18:06;;;;;;;7.03;1.23;;;;;;;8.26;100.00;99853.81;5027372;28;20100;-55
2023/01/01 04:20:31;;;;;;;15.73;2.33;;;;;;;8.19;100.00;99858.25;5021088;28;20021;-53
2023/01/01 04:22:59;;;;;;;12.07;2.05;;;;;;;8.23;100.00;99859.50;5017983;28;20145;-51
2023/01/01 04:25:25;;;;;;;18.83;3.83;;;;;;;8.30;100.00;99863.81;5029044;28;20032;-52
2023/01/01 04:27:50;;;;;;;13.05;1.23;;;;;;;8.38;100.00;99856.78;5027254;28;20376;-53
2023/01/01 04:30:16;;;;;;;8.85;1.48;;;;;;;8.31;100.00;99859.34;5017971;28;20107;-51
2023/01/01 04:32:42;;;;;;;8.32;1.10;;;;;;;8.39;100.00;99853.97;5024588;28;20076;-51
2023/01/01 04:35:11;;;;;;;6.70;2.15;;;;;;;8.38;100.00;99862.88;5036015;28;20482;-50
2023/01/01 04:37:37;;;;;;;15.13;2.25;;;;;;;8.30;100.00;99860.38;5035655;28;20056;-49
2023/01/01 04:40:04;;;;;;;10.23;1.90;;;;;;;8.39;100.00;99867.19;5027962;28;20119;-48
2023/01/01 04:42:29;;;;;;;12.65;2.03;;;;;;;8.40;100.00;99860.06;5033447;28;20176;-51
2023/01/01 04:44:55;;;;;;;8.13;1.58;;;;;;;8.23;100.00;99865.59;5038643;28;20382;-51
2023/01/01 04:47:21;;;;;;;9.27;3.35;;;;;;;8.11;100.00;99879.53;5029295;28;20383;-49
2023/01/01 04:49:46;;;;;;;21.77;2.90;;;;;;;8.14;100.00;99884.41;5023841;28;20486;-52
2023/01/01 04:52:11;;;;;;;16.40;1.88;;;;;;;8.12;100.00;99886.41;5013980;28;20486;-55
2023/01/01 04:54:37;;;;;;;8.95;1.38;;;;;;;8.23;100.00;99884.06;5024601;28;20028;-51
2023/01/01 04:57:02;;;;;;;12.45;1.58;;;;;;;8.33;100.00;99904.06;5031907;28;20556;-49
2023/01/01 04:59:29;;;;;;;20.60;1.90;;;;;;;8.40;100.00;99891.78;5025365;28;20491;-49
2023/01/01 05:01:54;;;;;;;14.43;2.08;;;;;;;8.40;100.00;99908.44;5029313;28;20591;-52
2023/01/01 05:04:20;;;;;;;11.63;2.33;;;;;;;8.58;100.00;99907.16;5027867;28;20067;-51
2023/01/01 05:06:45;;;;;;;8.73;0.90;;;;;;;8.71;100.00;99901.97;5024408;28;20065;-51
2023/01/01 05:09:11;;;;;;;16.73;1.95;;;;;;;8.63;100.00;99897.63;5021610;28;20030;-54
2023/01/01 05:11:37;;;;;;;15.23;2.13;;;;;;;8.59;100.00;99898.22;5037741;28;20024;-55
2023/01/01 05:14:02;;;;;;;17.52;2.25;;;;;;;8.60;100.00;99908.59;5028373;28;20036;-52
2023/01/01 05:16:30;;;;;;;9.15;1.15;;;;;;;8.72;100.00;99917.66;5027066;28;20065;-54
2023/01/01 05:18:56;;;;;;;9.07;2.13;;;;;;;8.82;100.00;99935.78;5024963;28;20030;-51
2023/01/01 05:21:30;;;;;;;13.23;3.20;;;;;;;8.86;100.00;99928.31;5034955;28;20075;-51
2023/01/01 05:23:58;;;;;;;9.65;3.10;;;;;;;8.97;100.00;99963.97;5030942;28;20022;-53
2023/01/01 05:26:27;;;;;;;16.40;2.45;;;;;;;8.87;100.00;99980.97;5027684;28;20033;-62
2023/01/01 05:28:53;;;;;;;3.55;0.55;;;;;;;8.65;100.00;99960.88;5031386;28;20025;-54
2023/01/01 05:31:21;;;;;;;11.70;0.60;;;;;;;8.33;100.00;99923.38;5024165;28;20123;-50
2023/01/01 05:33:48;;;;;;;7.75;0.75;;;;;;;8.08;100.00;99922.97;5021025;28;20083;-57
2023/01/01 05:36:17;;;;;;;4.18;0.32;;;;;;;7.99;100.00;99947.84;5026774;28;20025;-53
2023/01/01 05:38:43;;;;;;;1.20;0.35;;;;;;;7.92;100.00;99933.75;5029489;28;20057;-52
2023/01/01 05:41:10;;;;;;;3.53;0.20;;;;;;;8.00;100.00;99946.81;5026296;28;20123;-58
2023/01/01 05:43:36;;;;;;;2.85;0.10;;;;;;;7.85;100.00;99946.88;5037420;28;20033;-50
2023/01/01 05:46:11;;;;;;;5.50;0.10;;;;;;;7.76;100.00;99938.25;5029497;28;20022;-53
2023/01/01 05:48:36;;;;;;;1.77;0.10;;;;;;;7.60;100.00;99936.63;5024521;28;20029;-56
2023/01/01 05:51:06;;;;;;;6.57;0.47;;;;;;;7.52;100.00;99952.56;5021705;28;20322;-54
2023/01/01 05:53:32;;;;;;;3.63;0.65;;;;;;;7.45;100.00;99961.41;5020126;28;20080;-51
2023/01/01 05:56:00;;;;;;;3.45;0.30;;;;;;;7.46;100.00;99965.66;5020431;28;20585;-55
2023/01/01 05:58:26;;;;;;;2.72;0.00;;;;;;;7.46;100.00;99966.50;5019767;28;20040;-53
2023/01/01 06:00:52;;;;;;;4.40;0.10;;;;;;;7.32;100.00;99960.22;5020234;28;20022;-53
2023/01/01 06:03:17;;;;;;;6.65;0.15;;;;;;;7.41;100.00;99977.59;5026316;28;20303;-52
2023/01/01 06:05:43;;;;;;;12.80;1.58;;;;;;;7.39;100.00;99976.16;5022831;28;20484;-54
2023/01/01 06:08:08;;;;;;;6.15;0.25;;;;;;;7.25;100.00;99967.22;5027094;28;20095;-50
2023/01/01 06:10:34;;;;;;;6.88;0.77;;;;;;;7.14;100.00;99976.41;5027383;28;20025;-56
2023/01/01 06:12:59;;;;;;;4.10;1.60;;;;;;;7.12;100.00;99986.31;5031480;28;20033;-54
2023/01/01 06:15:26;;;;;;;4.78;0.57;;;;;;;7.03;100.00;99997.13;5030931;28;20492;-54
2023/01/01 06:17:51;;;;;;;9.02;0.65;;;;;;;7.09;100.00;100002.50;5029658;28;20470;-53
2023/01/01 06:20:17;;;;;;;7.00;2.05;;;;;;;7.10;100.00;100003.31;5021785;28;20112;-53
2023/01/01 06:22:42;;;;;;;9.15;1.02;;;;;;;7.21;100.00;100010.78;5017192;28;20485;-54
2023/01/01 06:25:08;;;;;;;3.17;0.80;;;;;;;7.21;100.00;100011.59;5021031;28;20037;-51
2023/01/01 06:27:35;;;;;;;3.58;0.60;;;;;;;7.30;100.00;100020.25;5019522;28;20183;-56
2023/01/01 06:30:01;;;;;;;7.30;0.75;;;;;;;7.30;100.00;100020.25;5022280;28;20026;-54
2023/01/01 06:32:26;;;;;;;6.82;1.85;;;;;;;7.33;100.00;100024.31;5020316;28;20386;-55
2023/01/01 06:34:51;;;;;;;13.80;2.38;;;;;;;7.46;100.00;100023.69;5022419;28;20122;-50
2023/01/01 06:37:17;;;;;;;10.88;1.27;;;;;;;7.51;100.00;100038.00;5020252;28;20017;-52
2023/01/01 06:39:42;;;;;;;9.05;2.05;;;;;;;7.62;100.00;100042.81;5019114;28;20144;-55
2023/01/01 06:42:07;;;;;;;10.10;2.20;;;;;;;7.63;100.00;100051.56;5020802;28;20076;-53
2023/01/01 06:44:33;;;;;;;12.60;1.13;;;;;;;7.71;100.00;100048.81;5016178;28;20029;-50
2023/01/01 06:46:58;;;;;;;12.30;1.83;;;;;;;7.77;100.00;100057.81;5027295;28;20062;-54
2023/01/01 06:49:23;;;;;;;15.45;1.73;;;;;;;7.89;100.00;100072.19;5027361;28;20060;-55
2023/01/01 06:51:49;;;;;;;13.85;3.00;;;;;;;7.94;100.00;100071.66;5030835;28;20494;-56
2023/01/01 06:54:14;;;;;;;11.45;4.03;;;;;;;7.99;100.00;100083.28;5025021;28;20034;-53
2023/01/01 06:56:39;;;;;;;17.25;3.10;;;;;;;8.07;100.00;100091.09;5030655;28;20017;-51
2023/01/01 06:59:05;;;;;;;18.48;1.98;;;;;;;8.01;100.00;100076.00;5030821;28;20385;-53
2023/01/01 07:01:34;;;;;;;17.52;3.50;;;;;;;8.05;100.00;100081.72;5034179;28;20111;-54
2023/01/01 07:04:02;;;;;;;11.55;2.33;;;;;;;8.05;100.00;100082.56;5034831;28;20320;-51
2023/01/01 07:06:29;;;;;;;14.52;1.52;;;;;;;7.97;100.00;100081.84;5030269;28;20053;-54
2023/01/01 07:08:55;;;;;;;16.45;2.10;;;;;;;7.96;100.00;100094.22;5022906;28;20071;-53
2023/01/01 07:11:20;;;;;;;9.73;2.22;;;;;;;7.95;100.00;100086.47;5029353;28;20024;-55
2023/01/01 07:13:46;;;;;;;14.80;3.63;;;;;;;7.92;100.00;100098.22;5033445;28;20029;-50
2023/01/01 07:16:11;;;;;;;17.35;3.08;;;;;;;7.83;100.00;100094.06;5024862;28;20109;-53
2023/01/01 07:18:37;;;;;;;13.63;1.67;;;;;;;7.86;100.00;100085.75;5025577;28;20026;-52
2023/01/01 07:21:04;;;;;;;21.42;3.85;;;;;;;7.93;100.00;100081.41;5030854;28;20029;-55
2023/01/01 07:23:32;;;;;;;17.45;4.10;;;;;;;7.92;100.00;100095.56;5033951;28;20112;-55
2023/01/01 07:25:58;;;;;;;17.58;3.65;;;;;;;7.93;100.00;100089.31;5028559;28;20035;-53
2023/01/01 07:28:24;;;;;;;14.38;2.97;;;;;;;7.97;100.00;100097.69;5021681;28;20522;-52
2023/01/01 07:30:51;;;;;;;22.52;5.35;;;;;;;8.04;100.00;100102.03;5026560;28;20030;-53
2023/01/01 07:33:19;;;;;;;30.45;3.60;;;;;;;8.00;100.00;100107.88;5022132;28;20034;-54
2023/01/01 07:35:45;;;;;;;24.10;1.35;;;;;;;8.10;100.00;100100.47;5027674;28;20033;-50
2023/01/01 07:38:10;;;;;;;5.90;2.25;;;;;;;8.27;100.00;100107.22;5021445;28;20077;-53
2023/01/01 07:40:36;;;;;;;15.70;1.30;;;;;;;8.43;100.00;100177.53;5029165;28;20394;-53
2023/01/01 07:43:01;;;;;;;6.13;2.03;;;;;;;8.45;100.00;100201.13;5036968;28;20101;-58
2023/01/01 07:45:27;;;;;;;4.30;1.35;;;;;;;7.92;100.00;100147.56;5025223;28;20025;-55
2023/01/01 07:47:56;;;;;;;4.78;0.68;;;;;;;7.38;100.00;100135.38;5022486;28;20541;-54
2023/01/01 07:50:23;;;;;;;3.28;0.45;;;;;;;7.15;100.00;100141.53;5027218;28;20061;-55
2023/01/01 07:52:48;;;;;;;0.57;0.05;;;;;;;7.08;100.00;100143.22;5027899;28;20084;-55
2023/01/01 07:55:15;;;;;;;2.03;0.03;;;;;;;6.98;100.00;100124.19;5027656;28;20100;-54
2023/01/01 07:57:42;;;;;;;2.70;0.90;;;;;;;6.99;100.00;100128.44;5031616;28;20030;-65
2023/01/01 08:00:10;;;;;;;4.22;1.13;;;;;;;7.03;100.00;100118.41;5028329;28;20120;-58
2023/01/01 08:02:35;;;;;;;2.30;1.23;;;;;;;7.11;100.00;100124.41;5024380;28;20032;-50
2023/01/01 08:05:01;;;;;;;3.80;0.10;;;;;;;7.02;100.00;100122.81;5025380;28;20364;-50
2023/01/01 08:07:26;;;;;;;0.85;0.10;;;;;;;7.04;100.00;100118.19;5029790;28;20089;-56
2023/01/01 08:09:51;;;;;;;2.53;0.47;;;;;;;7.02;100.00;100120.19;5027498;28;20025;-51
2023/01/01 08:12:16;;;;;;;0.28;0.10;;;;;;;7.07;100.00;100114.38;5032398;28;20049;-52
2023/01/01 08:14:42;;;;;;;5.93;1.70;;;;;;;6.92;100.00;100104.63;5020755;28;20033;-51
2023/01/01 08:17:07;;;;;;;3.47;1.08;;;;;;;6.93;100.00;100135.25;5026854;28;20034;-51
2023/01/01 08:19:32;;;;;;;0.17;0.13;;;;;;;6.89;100.00;100139.25;5024520;28;20026;-53
2023/01/01 08:21:58;;;;;;;3.83;0.32;;;;;;;6.93;100.00;100129.16;5025606;28;20034;-51
2023/01/01 08:24:23;;;;;;;4.18;0.28;;;;;;;6.88;100.00;100124.41;5030767;28;20383;-55
2023/01/01 08:26:49;;;;;;;3.20;0.43;;;;;;;6.78;100.00;100153.63;5026060;28;20014;-55
2023/01/01 08:29:15;;;;;;;0.22;0.20;;;;;;;6.79;100.00;100141.28;5029631;28;20037;-53
2023/01/01 08:31:40;;;;;;;3.28;0.52;;;;;;;6.84;100.00;100154.75;5017684;28;20043;-51
2023/01/01 08:34:06;;;;;;;4.20;0.20;;;;;;;6.88;100.00;100150.78;5026748;28;20029;-53
2023/01/01 08:36:32;;;;;;;0.75;0.20;;;;;;;6.85;100.00;100156.41;5026654;28;20033;-51
2023/01/01 08:38:57;;;;;;;7.38;1.58;;;;;;;6.73;100.00;100161.22;5031162;28;20029;-55
2023/01/01 08:41:22;;;;;;;8.02;0.13;;;;;;;6.66;100.00;100165.56;5025332;28;20073;-50
2023/01/01 08:43:48;;;;;;;4.43;1.92;;;;;;;6.63;100.00;100181.69;5029059;28;20029;-51
2023/01/01 08:46:13;;;;;;;3.90;0.38;;;;;;;6.67;100.00;100180.38;5028770;28;20120;-53
2023/01/01 08:48:38;;;;;;;6.70;1.30;;;;;;;6.77;100.00;100194.16;5031659;28;20128;-48
2023/01/01 08:51:04;;;;;;;7.07;0.28;;;;;;;6.80;100.00;100181.63;5025662;28;20057;-54
2023/01/01 08:53:31;;;;;;;4.60;1.40;;;;;;;6.76;100.00;100183.78;5021478;28;20871;-52
2023/01/01 08:55:59;;;;;;;9.57;1.38;;;;;;;6.70;100.00;100179.22;5027669;28;20025;-50
2023/01/01 08:58:25;;;;;;;6.90;0.90;;;;;;;6.65;100.00;100178.91;5025082;28;20041;-51
2023/01/01 09:00:50;;;;;;;0.80;0.10;;;;;;;6.69;100.00;100175.75;5028750;28;20363;-48
2023/01/01 09:03:16;;;;;;;3.97;0.50;;;;;;;6.64;100.00;100178.09;5027128;28;20029;-53
2023/01/01 09:05:44;;;;;;;11.23;0.80;;;;;;;6.65;100.00;100169.19;5022937;28;20040;-51
2023/01/01 09:08:19;;;;;;;2.33;0.85;;;;;;;6.63;100.00;100173.81;5026389;28;20022;-53
2023/01/01 09:10:44;;;;;;;5.63;0.40;;;;;;;6.69;100.00;100181.03;5029208;28;20026;-52
2023/01/01 09:13:12;;;;;;;3.15;0.45;;;;;;;6.72;100.00;100172.78;5027290;28;20426;-49
2023/01/01 09:15:38;;;;;;;8.85;1.92;;;;;;;6.87;100.00;100183.41;5022329;28;20369;-51
2023/01/01 09:18:04;;;;;;;4.20;1.35;;;;;;;6.89;100.00;100184.06;5025879;28;20021;-49
2023/01/01 09:20:29;;;;;;;16.48;1.35;;;;;;;6.95;100.00;100190.44;5027494;28;20391;-51
2023/01/01 09:22:55;;;;;;;9.57;1.05;;;;;;;7.01;100.00;100202.91;5026367;28;20065;-53
2023/01/01 09:25:20;;;;;;;7.55;0.98;;;;;;;7.09;100.00;100194.13;5028982;28;20029;-52
2023/01/01 09:27:46;;;;;;;6.55;0.80;;;;;;;6.96;100.00;100202.63;5021282;28;20051;-54
2023/01/01 09:30:12;;;;;;;9.93;2.22;;;;;;;7.01;100.00;100216.09;5023692;28;20113;-51
2023/01/01 09:32:38;;;;;;;9.00;0.95;;;;;;;7.11;100.00;100206.13;5026942;28;20075;-50
2023/01/01 09:35:03;;;;;;;9.98;1.27;;;;;;;7.34;100.00;100213.25;5032195;28;20061;-51
2023/01/01 09:37:30;;;;;;;6.63;0.88;;;;;;;7.34;100.00;100215.88;5035611;28;20030;-50
2023/01/01 09:39:55;;;;;;;11.88;1.13;;;;;;;7.34;100.00;100226.44;5028128;28;20498;-51
2023/01/01 09:42:44;;;;;;;8.88;1.00;;;;;;;7.37;100.00;100231.34;5027197;28;20108;-51
2023/01/01 09:45:30;;;;;;;5.38;0.93;;;;;;;7.46;100.00;100246.13;5033360;28;20026;-50
2023/01/01 09:48:10;;;;;;;10.63;2.63;;;;;;;7.49;100.00;100250.25;5031350;28;20032;-50
2023/01/01 09:50:42;;;;;;;17.58;3.33;;;;;;;7.56;100.00;100246.72;5031487;28;20123;-49
2023/01/01 09:53:16;;;;;;;9.38;1.98;;;;;;;7.56;100.00;100262.56;5028283;28;20491;-51
2023/01/01 09:55:52;;;;;;;6.70;2.90;;;;;;;7.51;100.00;100262.25;5036656;28;20060;-51
2023/01/01 09:58:23;;;;;;;3.72;1.10;;;;;;;7.50;100.00;100268.50;5014140;28;20444;-49
2023/01/01 10:00:53;;;;;;;13.02;1.52;;;;;;;7.41;100.00;100266.94;5023891;28;20025;-50
2023/01/01 10:03:31;;;;;;;8.88;0.55;;;;;;;7.45;100.00;100272.69;5013970;28;20087;-53
2023/01/01 10:06:05;;;;;;;6.70;0.70;;;;;;;7.46;100.00;100261.13;5019586;28;20022;-50
2023/01/01 10:08:38;;;;;;;16.98;2.83;;;;;;;7.52;100.00;100252.50;5018016;28;20497;-51
2023/01/01 10:11:22;;;;;;;7.10;0.13;;;;;;;7.57;100.00;100252.81;5021750;28;20026;-52
2023/01/01 10:13:50;;;;;;;6.60;1.00;;;;;;;7.60;100.00;100263.81;5029395;28;20063;-52
2023/01/01 10:16:34;;;;;;;1.38;1.05;;;;;;;7.53;100.00;100268.16;5023491;28;20249;-53
2023/01/01 10:19:39;;;;;;;6.93;3.20;;;;;;;7.59;100.00;100272.75;5025154;28;20035;-50
2023/01/01 10:22:17;;;;;;;3.15;0.73;;;;;;;7.68;100.00;100288.50;5017667;28;20025;-51
2023/01/01 10:24:50;;;;;;;6.43;1.77;;;;;;;7.69;100.00;100285.69;5016637;28;20060;-51
2023/01/01 10:27:31;;;;;;;13.18;1.45;;;;;;;7.74;100.00;100291.25;5022075;28;20154;-50
2023/01/01 10:29:56;;;;;;;9.00;2.13;;;;;;;7.70;100.00;100302.34;5025564;28;20383;-48
2023/01/01 10:32:31;;;;;;;7.30;1.75;;;;;;;7.82;100.00;100298.28;5022531;28;20037;-51
2023/01/01 10:34:57;;;;;;;8.45;2.53;;;;;;;7.86;100.00;100305.66;5023622;28;20025;-52
2023/01/01 10:37:23;;;;;;;5.88;1.58;;;;;;;7.99;100.00;100299.78;5031536;28;20035;-51
2023/01/01 10:39:49;;;;;;;15.93;3.75;;;;;;;8.05;100.00;100290.34;5023438;28;20037;-50
2023/01/01 10:42:15;;;;;;;7.75;1.83;;;;;;;8.06;100.00;100284.88;5015528;28;20017;-48
2023/01/01 10:44:41;;;;;;;14.85;2.67;;;;;;;8.16;100.00;100283.78;5029150;28;20032;-49
2023/01/01 10:47:27;;;;;;;13.05;1.95;;;;;;;8.32;100.00;100275.72;5033054;28;20106;-48
2023/01/01 10:49:59;;;;;;;8.88;1.27;;;;;;;8.37;100.00;100286.56;5019617;28;20048;-51
2023/01/01 10:52:33;;;;;;;16.08;2.08;;;;;;;8.41;100.00;100277.28;5028400;28;20080;-50
2023/01/01 10:54:59;;;;;;;6.55;1.65;;;;;;;8.40;100.00;100278.31;5031177;28;20037;-50
2023/01/01 10:57:27;;;;;;;13.82;2.30;;;;;;;8.49;100.00;100279.88;5035948;28;20013;-50
2023/01/01 10:59:53;;;;;;;23.13;4.30;;;;;;;8.51;100.00;100275.19;5019313;28;20040;-50
2023/01/01 11:02:26;;;;;;;15.65;3.25;;;;;;;8.63;100.00;100277.41;5027102;28;20037;-50
2023/01/01 11:05:20;;;;;;;16.38;3.20;;;;;;;8.72;100.00;100269.19;5021786;28;20479;-52
2023/01/01 11:07:46;;;;;;;21.42;2.88;;;;;;;8.67;100.00;100260.16;5021288;28;20029;-49
2023/01/01 11:10:20;;;;;;;9.43;1.52;;;;;;;8.74;100.00;100263.72;5018011;28;20057;-51
2023/01/01 11:12:46;;;;;;;18.52;3.05;;;;;;;8.76;100.00;100269.63;5020074;28;20083;-54
2023/01/01 11:15:41;;;;;;;14.52;2.45;;;;;;;8.85;100.00;100271.16;5023974;28;20459;-53
2023/01/01 11:18:12;;;;;;;7.57;2.45;;;;;;;8.91;100.00;100267.78;5018352;28;20045;-51
2023/01/01 11:20:39;;;;;;;7.93;2.95;;;;;;;8.97;100.00;100265.41;5026906;28;20041;-53
2023/01/01 11:23:32;;;;;;;15.80;2.63;;;;;;;9.04;100.00;100258.38;5021259;28;20067;-49
2023/01/01 11:25:58;;;;;;;15.63;2.65;;;;;;;8.98;100.00;100259.91;5027913;28;20763;-51
2023/01/01 11:28:23;;;;;;;20.40;2.65;;;;;;;9.05;100.00;100252.06;5022316;28;20128;-55
2023/01/01 11:31:00;;;;;;;12.52;2.58;;;;;;;9.16;100.00;100254.22;5027385;28;20029;-50
2023/01/01 11:33:28;;;;;;;22.55;4.90;;;;;;;9.19;100.00;100251.22;5027630;28;20672;-52
2023/01/01 11:35:55;;;;;;;20.35;3.90;;;;;;;9.27;100.00;100250.28;5022825;28;20072;-52
2023/01/01 11:38:22;;;;;;;7.43;2.15;;;;;;;9.30;100.00;100253.38;5020895;28;20028;-51
2023/01/01 11:41:10;;;;;;;22.00;3.05;;;;;;;9.41;100.00;100236.16;5026104;28;20111;-53